Time;durP1;ratioP1;P1;durP2;ratioP2;P2;SDS_P1;SDS_P2;PMS_P1;PMS_P2;Temp;Humidity;BMP_temperature;BMP_pressure;BME280_temperature;BME280_humidity;BME280_pressure;Samples;Min_cycle;Max_cycle;Signal;HPM_P1;HPM_P2
2023/04/03 00:01:20;;;;;;;2.70;1.60;;;;;;;1.43;71.02;100799.45;1697163;84;25563;-49
2023/04/03 00:03:46;;;;;;;3.02;1.32;;;;;;;1.38;70.86;100812.67;1697882;84;25670;-50
2023/04/03 00:06:15;;;;;;;3.47;1.90;;;;;;;1.33;70.82;100812.56;1765797;81;26217;-49
2023/04/03 00:08:43;;;;;;;3.15;1.65;;;;;;;1.29;70.85;100818.89;1697720;84;25564;-49
2023/04/03 00:11:11;;;;;;;2.42;1.57;;;;;;;1.22;70.94;100812.87;1765961;81;27482;-50
2023/04/03 00:13:39;;;;;;;2.50;1.50;;;;;;;1.16;70.79;100818.62;1766144;81;25801;-51
2023/04/03 00:16:10;;;;;;;5.30;2.00;;;;;;;1.11;71.03;100816.66;1697833;84;25591;-50
2023/04/03 00:18:39;;;;;;;3.37;1.57;;;;;;;1.08;70.84;100825.11;1766005;81;25541;-50
2023/04/03 00:21:08;;;;;;;3.75;1.72;;;;;;;1.02;70.82;100816.73;1697754;84;25575;-50
2023/04/03 00:23:36;;;;;;;3.67;1.70;;;;;;;0.97;70.94;100827.27;1766519;81;27502;-49
2023/04/03 00:26:04;;;;;;;5.97;1.87;;;;;;;0.92;71.11;100822.63;1697160;84;27363;-49
2023/04/03 00:28:30;;;;;;;2.17;1.50;;;;;;;0.89;71.14;100823.09;1766070;81;25380;-51
2023/04/03 00:30:58;;;;;;;4.80;1.92;;;;;;;0.84;70.65;100826.97;1766239;80;25453;-49
2023/04/03 00:33:25;;;;;;;3.65;1.70;;;;;;;0.79;70.73;100822.05;1697605;84;25386;-49
2023/04/03 00:35:53;;;;;;;3.77;1.62;;;;;;;0.74;70.77;100825.39;1765970;80;27516;-49
2023/04/03 00:38:19;;;;;;;3.52;1.47;;;;;;;0.69;70.83;100826.08;1766181;81;25731;-53
2023/04/03 00:40:50;;;;;;;4.45;1.62;;;;;;;0.64;70.83;100819.30;1766267;81;25538;-50
2023/04/03 00:43:26;;;;;;;3.25;1.52;;;;;;;0.61;70.69;100824.28;1766286;81;25606;-50
2023/04/03 00:45:58;;;;;;;3.42;1.40;;;;;;;0.55;70.74;100824.16;1766312;81;25615;-49
2023/04/03 00:48:38;;;;;;;2.27;1.40;;;;;;;0.51;70.84;100824.33;1697517;84;27530;-49
2023/04/03 00:51:15;;;;;;;4.80;1.82;;;;;;;0.47;70.61;100829.80;1761222;80;25400;-50
2023/04/03 00:53:49;;;;;;;4.80;1.85;;;;;;;0.44;70.97;100828.12;1697042;84;25566;-50
2023/04/03 00:56:21;;;;;;;7.87;1.82;;;;;;;0.40;70.82;100828.30;1761150;80;25583;-52
2023/04/03 00:59:03;;;;;;;3.67;2.65;;;;;;;0.36;70.72;100824.75;1692537;84;25549;-50
2023/04/03 01:01:31;;;;;;;4.30;1.50;;;;;;;0.31;70.70;100832.61;1739236;81;27521;-50
2023/04/03 01:04:03;;;;;;;2.52;1.30;;;;;;;0.26;70.59;100829.82;1765350;80;25592;-50
2023/04/03 01:06:34;;;;;;;6.45;1.40;;;;;;;0.22;70.56;100832.63;1738636;81;25570;-49
2023/04/03 01:09:03;;;;;;;4.55;1.40;;;;;;;0.17;70.57;100833.83;1765310;80;25577;-49
2023/04/03 01:11:30;;;;;;;2.05;1.15;;;;;;;0.12;70.52;100834.52;1766119;81;25464;-49
2023/04/03 01:13:58;;;;;;;4.35;1.37;;;;;;;0.07;70.53;100837.55;1766206;81;27809;-49
2023/04/03 01:16:24;;;;;;;4.00;1.40;;;;;;;0.03;70.53;100841.70;1765990;81;25520;-49
2023/04/03 01:18:52;;;;;;;2.50;1.42;;;;;;;-0.02;70.49;100837.05;1766143;81;25583;-50
2023/04/03 01:21:48;;;;;;;2.37;1.45;;;;;;;-0.05;70.41;100851.63;1766215;81;25615;-49
2023/04/03 01:24:38;;;;;;;2.58;1.27;;;;;;;-0.09;70.23;100849.63;1697780;84;25511;-48
2023/04/03 01:27:10;;;;;;;3.52;1.30;;;;;;;-0.12;70.33;100855.39;1696925;84;29629;-50
2023/04/03 01:29:43;;;;;;;2.17;1.40;;;;;;;-0.17;70.46;100853.92;1697488;84;25491;-50
2023/04/03 01:32:10;;;;;;;6.03;1.52;;;;;;;-0.21;70.38;100863.67;1697397;84;25481;-49
2023/04/03 01:34:37;;;;;;;2.50;1.40;;;;;;;-0.26;70.47;100864.86;1697230;84;25601;-49
2023/04/03 01:37:05;;;;;;;2.12;1.72;;;;;;;-0.27;70.48;100868.56;1697801;84;25655;-49
2023/04/03 01:39:31;;;;;;;3.50;1.35;;;;;;;-0.31;70.47;100874.02;1697460;84;27682;-49
2023/04/03 01:41:58;;;;;;;4.10;1.50;;;;;;;-0.33;70.59;100877.95;1697451;84;25490;-49
2023/04/03 01:44:25;;;;;;;4.42;1.50;;;;;;;-0.36;70.65;100879.72;1697600;84;25612;-49
2023/04/03 01:46:51;;;;;;;4.87;1.47;;;;;;;-0.40;70.52;100878.82;1697000;84;25539;-49
2023/04/03 01:49:17;;;;;;;2.58;1.50;;;;;;;-0.43;70.60;100877.92;1697511;84;25545;-49
2023/04/03 01:51:43;;;;;;;3.92;1.10;;;;;;;-0.45;70.58;100878.67;1684149;84;27829;-49
2023/04/03 01:54:10;;;;;;;1.87;1.10;;;;;;;-0.46;70.70;100884.20;1697079;84;25629;-49
2023/04/03 01:56:38;;;;;;;1.60;1.20;;;;;;;-0.50;70.75;100889.16;1697004;84;25574;-49
2023/04/03 01:59:06;;;;;;;2.27;1.12;;;;;;;-0.54;70.66;100889.31;1697509;84;25509;-50
2023/04/03 02:01:32;;;;;;;4.08;1.40;;;;;;;-0.56;70.84;100894.05;1697487;84;25604;-50
2023/04/03 02:03:58;;;;;;;3.10;1.25;;;;;;;-0.59;70.72;100897.94;1766068;81;27529;-50
2023/04/03 02:06:25;;;;;;;3.13;1.10;;;;;;;-0.62;70.78;100902.36;1765949;81;30895;-50
2023/04/03 02:08:52;;;;;;;2.22;1.02;;;;;;;-0.67;70.76;100898.22;1766155;81;25613;-50
2023/04/03 02:11:18;;;;;;;4.85;1.50;;;;;;;-0.69;70.90;100897.63;1766080;81;25557;-50
2023/04/03 02:13:45;;;;;;;2.77;1.57;;;;;;;-0.73;70.84;100900.44;1766135;81;25594;-50
2023/04/03 02:16:13;;;;;;;6.05;1.60;;;;;;;-0.75;70.98;100903.80;1763757;80;28057;-50
2023/04/03 02:18:39;;;;;;;2.73;2.03;;;;;;;-0.79;70.97;100899.97;1766253;81;26012;-51
2023/04/03 02:21:06;;;;;;;3.95;1.98;;;;;;;-0.84;70.88;100903.27;1697360;84;25404;-54
2023/04/03 02:23:32;;;;;;;3.50;1.32;;;;;;;-0.84;71.04;100906.45;1698542;84;25501;-51
2023/04/03 02:26:11;;;;;;;1.57;1.20;;;;;;;-0.87;71.02;100904.23;1698658;84;25576;-50
2023/04/03 02:28:41;;;;;;;1.87;1.40;;;;;;;-0.91;71.06;100903.86;1698576;84;28271;-50
2023/04/03 02:31:10;;;;;;;1.70;1.20;;;;;;;-0.92;71.07;100908.05;1678339;84;25780;-50
2023/04/03 02:33:38;;;;;;;;;;;;;;;-0.95;71.16;100900.82;1701109;84;25599;-51
2023/04/03 02:36:08;;;;;;;4.10;1.27;;;;;;;-0.97;71.13;100907.37;1698462;84;25648;-51
2023/04/03 02:38:36;;;;;;;2.85;1.50;;;;;;;-1.00;71.19;100908.63;1698616;84;25403;-50
2023/04/03 02:41:08;;;;;;;3.95;1.62;;;;;;;-1.05;71.21;100912.45;1698538;84;28275;-50
2023/04/03 02:43:37;;;;;;;4.92;1.60;;;;;;;-1.06;71.27;100908.68;1698239;84;27392;-50
2023/04/03 02:46:06;;;;;;;3.37;1.57;;;;;;;-1.08;71.28;100913.41;1698685;84;25476;-50
2023/04/03 02:48:36;;;;;;;2.60;1.85;;;;;;;-1.10;71.43;100915.47;1698648;83;25572;-51
2023/04/03 02:51:02;;;;;;;2.85;1.22;;;;;;;-1.14;71.38;100913.23;1698686;84;25418;-50
2023/04/03 02:53:28;;;;;;;3.30;1.82;;;;;;;-1.16;71.53;100916.62;1698526;83;29784;-50
2023/04/03 02:55:54;;;;;;;3.70;1.35;;;;;;;-1.16;71.58;100916.62;1698421;84;25590;-49
2023/04/03 02:58:20;;;;;;;1.57;1.13;;;;;;;-1.19;71.48;100914.89;1698408;84;25693;-50
2023/04/03 03:00:47;;;;;;;4.72;1.17;;;;;;;-1.21;71.58;100913.80;1698245;84;25557;-50
2023/04/03 03:03:13;;;;;;;2.02;1.07;;;;;;;-1.24;71.67;100917.38;1698593;84;25606;-49
2023/04/03 03:05:41;;;;;;;1.70;0.90;;;;;;;-1.25;71.68;100915.77;1697381;84;27508;-50
2023/04/03 03:08:07;;;;;;;1.05;0.95;;;;;;;-1.28;71.80;100917.52;1726374;83;25482;-50
2023/04/03 03:10:33;;;;;;;2.20;1.37;;;;;;;-1.30;71.80;100915.08;1697521;84;25461;-50
2023/04/03 03:12:59;;;;;;;2.15;1.10;;;;;;;-1.31;72.11;100917.45;1697328;84;27626;-50
2023/04/03 03:15:25;;;;;;;2.77;1.00;;;;;;;-1.34;71.99;100911.23;1697555;84;25448;-50
2023/04/03 03:17:52;;;;;;;3.72;1.10;;;;;;;-1.36;71.97;100921.27;1697445;84;27529;-50
2023/04/03 03:20:19;;;;;;;1.87;1.20;;;;;;;-1.40;72.08;100926.16;1697338;84;25603;-50
2023/04/03 03:22:47;;;;;;;2.50;1.20;;;;;;;-1.40;72.15;100929.33;1697460;84;25542;-50
2023/04/03 03:25:13;;;;;;;2.05;1.30;;;;;;;-1.44;72.15;100918.86;1697355;84;25503;-49
2023/04/03 03:27:41;;;;;;;3.50;1.42;;;;;;;-1.45;72.20;100922.52;1675993;84;25570;-49
2023/04/03 03:30:12;;;;;;;2.15;1.07;;;;;;;-1.48;72.39;100921.13;1697476;84;27509;-50
2023/04/03 03:32:38;;;;;;;1.72;1.10;;;;;;;-1.49;72.30;100925.31;1679701;84;25558;-51
2023/04/03 03:35:08;;;;;;;2.55;1.35;;;;;;;-1.52;72.37;100929.20;1697587;84;25548;-49
2023/04/03 03:37:34;;;;;;;2.70;1.15;;;;;;;-1.54;72.54;100928.60;1697208;84;25557;-50
2023/04/03 03:40:06;;;;;;;3.58;1.40;;;;;;;-1.57;72.57;100933.80;1697482;84;25497;-51
2023/04/03 03:42:32;;;;;;;1.87;1.12;;;;;;;-1.59;72.66;100935.86;1697513;84;27480;-50
2023/04/03 03:44:58;;;;;;;1.80;0.95;;;;;;;-1.62;72.68;100934.16;1697408;84;25588;-51
2023/04/03 03:47:25;;;;;;;1.45;1.05;;;;;;;-1.66;72.74;100929.78;1697392;84;25397;-50
2023/04/03 03:49:52;;;;;;;2.80;1.05;;;;;;;-1.68;72.79;100940.33;1697351;84;25625;-50
2023/04/03 03:52:19;;;;;;;1.80;1.30;;;;;;;-1.71;72.85;100940.22;1697444;84;25457;-50
2023/04/03 03:54:49;;;;;;;3.33;1.70;;;;;;;-1.73;73.01;100938.30;1697471;84;27501;-50
2023/04/03 03:57:16;;;;;;;1.20;0.80;;;;;;;-1.75;73.10;100946.46;1697396;84;25619;-50
2023/04/03 03:59:44;;;;;;;1.15;0.80;;;;;;;-1.77;73.11;100945.03;1697133;84;25410;-50
2023/04/03 04:02:12;;;;;;;2.87;1.25;;;;;;;-1.79;73.30;100947.89;1677969;84;25524;-50
2023/04/03 04:04:38;;;;;;;4.72;1.50;;;;;;;-1.82;73.26;100942.20;1766418;80;25426;-50
2023/04/03 04:07:04;;;;;;;2.83;1.30;;;;;;;-1.84;73.35;100945.05;1766190;81;27472;-50
2023/04/03 04:09:30;;;;;;;0.98;0.95;;;;;;;-1.85;73.37;100954.05;1697875;84;27392;-50
2023/04/03 04:11:57;;;;;;;2.42;1.12;;;;;;;-1.87;73.51;100953.45;1698542;84;25428;-53
2023/04/03 04:14:23;;;;;;;6.00;1.50;;;;;;;-1.86;73.51;100951.61;1697088;84;25608;-50
2023/04/03 04:16:51;;;;;;;2.75;1.00;;;;;;;-1.89;73.62;100954.98;1698453;84;25468;-50
2023/04/03 04:19:17;;;;;;;1.35;1.10;;;;;;;-1.90;73.62;100960.50;1698595;84;27494;-50
2023/04/03 04:21:43;;;;;;;5.62;1.17;;;;;;;-1.91;73.76;100962.84;1697429;84;25842;-50
2023/04/03 04:24:11;;;;;;;2.52;1.20;;;;;;;-1.93;73.72;100966.22;1726496;83;25414;-51
2023/04/03 04:26:37;;;;;;;1.45;0.98;;;;;;;-1.92;74.02;100966.01;1697541;84;26148;-49
2023/04/03 04:29:04;;;;;;;3.85;1.27;;;;;;;-1.92;73.87;100965.20;1697590;84;25559;-50
2023/04/03 04:31:30;;;;;;;4.58;1.50;;;;;;;-1.93;73.94;100968.34;1692726;84;27512;-50
2023/04/03 04:33:56;;;;;;;4.40;2.07;;;;;;;-1.93;73.97;100971.52;1761141;81;30321;-50
2023/04/03 04:36:22;;;;;;;3.40;1.55;;;;;;;-1.94;73.91;100978.67;1693163;84;25521;-49
2023/04/03 04:38:48;;;;;;;1.87;0.90;;;;;;;-1.93;74.06;100984.78;1696710;84;34791;-49
2023/04/03 04:41:14;;;;;;;3.43;1.70;;;;;;;-1.95;74.02;100981.00;1696147;84;30441;-50
2023/04/03 04:43:42;;;;;;;3.02;1.60;;;;;;;-1.94;74.06;100983.97;1671605;84;27781;-50
2023/04/03 04:46:12;;;;;;;4.12;1.27;;;;;;;-1.92;74.19;100987.22;1766106;80;27262;-49
2023/04/03 04:48:38;;;;;;;4.20;1.70;;;;;;;-1.92;74.22;100987.22;1766190;81;25600;-50
2023/04/03 04:51:08;;;;;;;3.05;1.30;;;;;;;-1.92;74.15;100987.75;1763976;80;26356;-49
2023/04/03 04:53:34;;;;;;;2.70;1.37;;;;;;;-1.90;74.30;100991.00;1765967;81;25371;-49
2023/04/03 04:56:05;;;;;;;2.37;1.35;;;;;;;-1.89;74.27;100989.47;1697169;84;27531;-50
2023/04/03 04:58:31;;;;;;;;;;;;;;;-1.88;74.37;100997.70;1765751;81;25419;-49
2023/04/03 05:01:09;;;;;;;5.47;2.83;;;;;;;-1.87;74.26;100999.86;1741763;81;25457;-51
2023/04/03 05:03:38;;;;;;;2.47;1.40;;;;;;;-1.84;74.30;101000.75;1760934;81;25501;-48
2023/04/03 05:06:07;;;;;;;2.05;1.20;;;;;;;-1.84;74.18;101001.27;1760445;80;25556;-50
2023/04/03 05:08:33;;;;;;;2.50;1.60;;;;;;;-1.79;74.21;101004.11;1764307;80;27184;-49
2023/04/03 05:10:59;;;;;;;2.98;1.55;;;;;;;-1.78;74.29;101003.90;1766148;81;25803;-49
2023/04/03 05:13:26;;;;;;;4.72;1.65;;;;;;;-1.74;74.17;101002.97;1766127;81;25446;-49
2023/04/03 05:15:52;;;;;;;2.90;1.40;;;;;;;-1.73;74.05;101006.73;1766142;81;25577;-50
2023/04/03 05:18:21;;;;;;;3.12;1.35;;;;;;;-1.72;74.10;101007.55;1766211;81;25385;-49
2023/04/03 05:20:54;;;;;;;2.65;1.27;;;;;;;-1.67;74.16;101013.55;1697416;84;27557;-49
2023/04/03 05:23:20;;;;;;;3.10;1.52;;;;;;;-1.62;74.11;101006.59;1766138;80;25426;-53
2023/04/03 05:25:48;;;;;;;2.42;1.50;;;;;;;-1.57;73.98;101017.91;1766252;81;25567;-49
2023/04/03 05:28:15;;;;;;;1.67;1.02;;;;;;;-1.50;74.12;101017.36;1766154;81;25504;-49
2023/04/03 05:30:41;;;;;;;4.12;1.62;;;;;;;-1.45;74.15;101013.55;1679702;84;25703;-49
2023/04/03 05:33:08;;;;;;;2.37;1.30;;;;;;;-1.35;73.87;101017.09;1765967;81;27532;-49
2023/04/03 05:35:41;;;;;;;2.92;1.35;;;;;;;-1.25;73.91;101031.24;1697508;84;25829;-53
2023/04/03 05:38:09;;;;;;;4.40;1.70;;;;;;;-1.16;73.87;101029.95;1766115;81;25444;-51
2023/04/03 05:40:37;;;;;;;3.80;1.73;;;;;;;-1.06;73.71;101024.99;1697390;84;25571;-51
2023/04/03 05:43:06;;;;;;;3.75;1.37;;;;;;;-0.96;73.45;101034.63;1766080;81;25567;-53
2023/04/03 05:45:32;;;;;;;1.55;1.45;;;;;;;-0.81;73.38;101026.89;1766301;81;27486;-51
2023/04/03 05:47:58;;;;;;;1.25;1.05;;;;;;;-0.68;73.21;101029.95;1766076;81;25564;-53
2023/04/03 05:50:24;;;;;;;1.77;1.40;;;;;;;-0.55;73.22;101033.03;1766204;80;25527;-52
2023/04/03 05:53:04;;;;;;;2.45;1.20;;;;;;;-0.37;73.12;101043.73;1697485;84;25509;-51
2023/04/03 05:55:30;;;;;;;2.10;1.25;;;;;;;-0.22;72.85;101046.06;1761388;81;25613;-50
2023/04/03 05:57:58;;;;;;;5.33;1.98;;;;;;;-0.01;72.66;101036.31;1760399;81;27525;-50
2023/04/03 06:00:25;;;;;;;4.03;1.70;;;;;;;0.18;71.93;101038.47;1757515;81;25737;-51
2023/04/03 06:02:51;;;;;;;4.70;1.82;;;;;;;0.32;71.53;101043.66;1737661;81;25730;-50
2023/04/03 06:05:18;;;;;;;2.67;1.42;;;;;;;0.51;70.99;101032.47;1757599;81;25789;-50
2023/04/03 06:07:45;;;;;;;6.70;1.92;;;;;;;0.70;71.17;101051.39;1757953;81;25605;-51
2023/04/03 06:10:14;;;;;;;2.47;1.65;;;;;;;0.96;70.93;101052.08;1679782;84;29684;-50
2023/04/03 06:12:41;;;;;;;3.55;1.40;;;;;;;1.17;70.78;101044.61;1696456;84;25370;-50
2023/04/03 06:15:11;;;;;;;4.20;1.60;;;;;;;1.40;69.42;101049.20;1695934;84;25724;-53
2023/04/03 06:17:37;;;;;;;4.58;1.67;;;;;;;1.58;68.98;101050.41;1696001;84;25536;-54
2023/04/03 06:20:09;;;;;;;3.67;1.62;;;;;;;1.77;68.16;101048.98;1695712;84;25612;-52
2023/04/03 06:22:37;;;;;;;2.60;1.62;;;;;;;1.96;68.08;101057.18;1696198;83;27415;-50
2023/04/03 06:45:45;;;;;;;1.57;1.15;;;;;;;3.36;64.18;101070.87;1667486;82;26929;-48
2023/04/03 06:48:11;;;;;;;3.02;1.35;;;;;;;3.60;63.81;101075.55;1751063;82;27575;-47
2023/04/03 06:50:38;;;;;;;4.42;1.47;;;;;;;3.89;63.17;101062.88;1751006;82;25653;-48
2023/04/03 06:53:05;;;;;;;4.47;1.85;;;;;;;4.10;62.63;101075.22;1751074;82;25444;-48
2023/04/03 06:55:32;;;;;;;1.42;1.32;;;;;;;4.32;62.50;101080.61;1751090;82;25536;-49
2023/04/03 06:57:58;;;;;;;2.92;1.57;;;;;;;4.56;62.02;101073.67;1751085;82;32805;-47
2023/04/03 07:00:24;;;;;;;1.95;1.50;;;;;;;4.78;62.15;101077.69;1751105;81;27487;-50
2023/04/03 07:02:51;;;;;;;4.45;1.55;;;;;;;5.04;61.17;101080.94;1751012;82;25681;-48
2023/04/03 07:05:18;;;;;;;2.90;1.45;;;;;;;5.30;60.85;101075.81;1751105;82;25478;-47
2023/04/03 07:07:44;;;;;;;2.25;1.40;;;;;;;5.65;61.57;101085.77;1751067;82;25479;-49
2023/04/03 07:10:11;;;;;;;4.22;1.52;;;;;;;6.01;60.43;101087.39;1751152;82;25609;-48
2023/04/03 07:12:38;;;;;;;4.58;1.67;;;;;;;6.21;59.38;101083.48;1751072;82;27512;-50
2023/04/03 07:15:07;;;;;;;6.45;2.08;;;;;;;6.46;59.43;101088.73;1750994;82;25786;-49
2023/04/03 07:17:33;;;;;;;2.02;1.15;;;;;;;6.74;58.01;101099.59;1751199;82;25437;-48
2023/04/03 07:19:59;;;;;;;5.87;1.35;;;;;;;6.86;57.14;101089.95;1751042;82;25498;-49
2023/04/03 07:22:26;;;;;;;6.40;2.05;;;;;;;6.99;57.21;101092.14;1751128;82;25407;-48
2023/04/03 07:24:53;;;;;;;3.90;1.80;;;;;;;7.25;56.59;101115.08;1751069;82;27670;-48
2023/04/03 07:27:19;;;;;;;3.20;2.05;;;;;;;7.44;55.89;101105.95;1751001;82;25601;-48
2023/04/03 07:29:47;;;;;;;2.25;1.60;;;;;;;7.61;55.36;101108.38;1751091;82;25602;-48
2023/04/03 07:32:15;;;;;;;4.10;1.80;;;;;;;7.69;54.18;101108.40;1751035;82;25506;-47
2023/04/03 07:34:41;;;;;;;2.55;1.60;;;;;;;7.78;52.98;101111.63;1674565;85;25648;-49
2023/04/03 07:37:08;;;;;;;4.90;1.90;;;;;;;7.89;52.82;101108.39;1751159;81;27468;-48
2023/04/03 07:39:36;;;;;;;6.62;1.85;;;;;;;8.13;53.62;101111.86;1751156;82;25453;-49
2023/04/03 07:42:03;;;;;;;4.33;1.70;;;;;;;8.44;52.92;101109.92;1732342;82;25539;-48
2023/04/03 07:44:29;;;;;;;6.05;1.70;;;;;;;8.59;51.48;101111.77;1751220;82;25702;-49
2023/04/03 07:46:56;;;;;;;3.52;1.95;;;;;;;8.70;51.37;101116.57;1751203;81;25553;-49
2023/04/03 07:49:24;;;;;;;4.42;1.57;;;;;;;8.93;51.56;101109.73;1674660;85;27502;-49
2023/04/03 07:51:51;;;;;;;4.40;1.60;;;;;;;9.21;51.17;101115.51;1751127;82;25603;-48
2023/04/03 07:54:17;;;;;;;3.52;1.20;;;;;;;9.45;49.41;101116.97;1751261;82;25474;-48
2023/04/03 07:56:44;;;;;;;4.12;1.60;;;;;;;9.28;47.84;101115.48;1751205;82;25636;-49
2023/04/03 07:59:11;;;;;;;5.83;1.80;;;;;;;9.20;48.36;101109.31;1750490;82;25557;-49
2023/04/03 08:01:37;;;;;;;3.22;1.70;;;;;;;9.41;49.11;101114.02;1749755;82;29674;-48
2023/04/03 08:04:04;;;;;;;4.60;1.70;;;;;;;9.64;48.34;101117.12;1750775;82;25690;-50
2023/04/03 08:06:34;;;;;;;4.87;1.85;;;;;;;9.81;46.64;101117.52;1732081;82;25421;-51
2023/04/03 08:08:59;;;;;;;4.67;1.70;;;;;;;9.76;45.97;101110.00;1674599;84;25514;-49
2023/04/03 08:11:26;;;;;;;3.95;1.70;;;;;;;10.14;47.43;101119.65;1751233;82;25444;-49
2023/04/03 08:13:53;;;;;;;5.45;1.82;;;;;;;10.55;47.05;101115.18;1674659;84;27500;-52
2023/04/03 08:16:23;;;;;;;3.75;1.72;;;;;;;11.15;46.82;101110.61;1751160;81;25589;-47
2023/04/03 08:18:49;;;;;;;3.62;1.80;;;;;;;11.61;44.90;101126.17;1673998;84;25470;-48
2023/04/03 08:21:15;;;;;;;4.17;2.15;;;;;;;11.86;44.13;101121.45;1750206;82;26216;-48
2023/04/03 08:23:42;;;;;;;2.75;1.55;;;;;;;12.22;43.88;101116.77;1751078;82;25624;-49
2023/04/03 08:26:12;;;;;;;3.42;2.05;;;;;;;12.51;43.10;101133.59;1751194;82;27530;-49
2023/04/03 08:28:39;;;;;;;2.27;1.52;;;;;;;12.70;42.77;101121.80;1751136;82;26691;-50
2023/04/03 08:31:10;;;;;;;2.77;1.47;;;;;;;12.82;42.88;101126.18;1751056;82;25597;-51
2023/04/03 08:33:38;;;;;;;3.80;1.77;;;;;;;12.79;42.74;101130.85;1750215;82;25564;-49
2023/04/03 08:36:07;;;;;;;3.70;2.17;;;;;;;12.52;40.75;101134.38;1750626;82;25778;-50
2023/04/03 08:38:37;;;;;;;2.62;1.40;;;;;;;12.37;40.11;101140.11;1732163;82;28021;-49
2023/04/03 08:41:31;;;;;;;2.60;1.50;;;;;;;11.98;41.10;101122.36;1674698;85;26158;-49
2023/04/03 08:44:17;;;;;;;3.05;1.35;;;;;;;11.87;40.87;101112.22;1749599;81;25667;-50
2023/04/03 08:47:05;;;;;;;4.03;1.98;;;;;;;11.57;40.52;101138.15;1751621;81;25629;-50
2023/04/03 08:50:04;;;;;;;5.15;2.58;;;;;;;11.36;40.49;101128.19;1674474;85;25434;-51
2023/04/03 08:52:47;;;;;;;4.58;2.50;;;;;;;11.50;40.48;101132.31;1675416;85;27569;-53
2023/04/03 08:55:45;;;;;;;3.67;1.70;;;;;;;11.92;41.30;101131.94;1675027;85;25632;-52
2023/04/03 08:58:21;;;;;;;1.42;1.27;;;;;;;12.26;40.76;101125.91;1674949;85;25691;-52
2023/04/03 09:01:16;;;;;;;1.82;1.17;;;;;;;12.08;38.76;101124.89;1675147;85;25605;-54
2023/04/03 09:03:42;;;;;;;2.65;1.35;;;;;;;11.69;39.45;101130.12;1674787;85;25232;-54
2023/04/03 09:06:32;;;;;;;2.17;1.27;;;;;;;11.53;38.59;101138.50;1675146;85;27494;-50
2023/04/03 09:09:12;;;;;;;4.37;1.95;;;;;;;11.27;39.64;101125.89;1675030;85;25883;-54
2023/04/03 09:12:19;;;;;;;3.15;1.57;;;;;;;12.06;40.77;101127.10;1675335;85;25641;-49
2023/04/03 09:15:08;;;;;;;2.67;1.52;;;;;;;12.89;40.79;101121.70;1674472;85;26458;-51
2023/04/03 09:17:57;;;;;;;2.95;1.35;;;;;;;13.60;39.02;101117.95;1650976;85;25558;-47
2023/04/03 09:20:38;;;;;;;4.90;1.40;;;;;;;13.08;37.89;101133.22;1674261;85;32849;-52
2023/04/03 09:23:34;;;;;;;3.10;1.67;;;;;;;12.07;36.89;101121.39;1675076;85;25541;-47
2023/04/03 09:26:29;;;;;;;1.82;1.45;;;;;;;11.61;37.73;101138.92;1687965;81;25453;-48
2023/04/03 09:29:00;;;;;;;5.92;1.80;;;;;;;11.36;39.00;101126.03;1678995;84;25560;-48
2023/04/03 09:31:32;;;;;;;2.62;1.40;;;;;;;12.19;39.12;101137.70;1756060;81;25627;-48
2023/04/03 09:34:20;;;;;;;2.15;1.55;;;;;;;12.43;38.79;101133.45;1755237;81;27427;-48
2023/04/03 09:36:51;;;;;;;4.47;1.77;;;;;;;12.82;38.03;101129.42;1755733;81;25438;-49
2023/04/03 09:39:28;;;;;;;6.17;2.00;;;;;;;13.25;37.76;101129.06;1755936;81;25390;-50
2023/04/03 09:42:19;;;;;;;3.25;1.37;;;;;;;12.92;36.74;101142.79;1755851;81;28841;-50
2023/04/03 09:44:59;;;;;;;1.72;1.12;;;;;;;12.96;37.09;101124.80;1756053;81;25438;-50
2023/04/03 09:47:36;;;;;;;1.85;1.47;;;;;;;13.73;38.23;101127.70;1756000;81;28303;-50
2023/04/03 09:50:23;;;;;;;3.42;1.70;;;;;;;14.55;37.83;101129.61;1755883;81;25583;-49
2023/04/03 09:52:52;;;;;;;2.08;1.20;;;;;;;14.23;36.52;101132.92;1736570;81;25559;-49
2023/04/03 09:55:26;;;;;;;2.70;1.35;;;;;;;13.38;35.47;101125.53;1756068;81;25995;-48
2023/04/03 09:57:51;;;;;;;2.22;1.42;;;;;;;12.42;34.33;101146.79;1755628;81;25548;-49
2023/04/03 10:00:28;;;;;;;4.33;1.65;;;;;;;12.10;35.37;101141.10;1755856;81;27557;-52
2023/04/03 10:02:57;;;;;;;7.42;2.10;;;;;;;12.68;36.97;101138.95;1755912;81;25480;-52
2023/04/03 10:05:35;;;;;;;2.33;1.42;;;;;;;13.90;37.25;101131.08;1755921;81;25559;-53
2023/04/03 10:08:12;;;;;;;4.80;1.60;;;;;;;14.66;36.56;101137.78;1755920;81;25541;-50
2023/04/03 10:10:42;;;;;;;3.00;1.30;;;;;;;14.61;34.32;101122.95;1756100;81;25389;-53
2023/04/03 10:13:20;;;;;;;1.62;1.10;;;;;;;13.68;33.66;101138.13;1755322;81;27564;-53
2023/04/03 10:15:58;;;;;;;4.35;1.60;;;;;;;12.68;33.44;101141.13;1755905;81;25828;-51
2023/04/03 10:18:40;;;;;;;1.57;1.22;;;;;;;11.64;33.54;101141.84;1736821;81;25848;-50
2023/04/03 10:21:27;;;;;;;1.75;1.20;;;;;;;11.40;35.22;101131.91;1755889;81;27668;-53
2023/04/03 10:24:23;;;;;;;3.35;1.20;;;;;;;11.95;36.08;101135.95;1755688;81;25634;-51
2023/04/03 10:27:08;;;;;;;35.15;26.30;;;;;;;11.84;35.59;101138.56;1756081;81;27399;-51
2023/04/03 10:30:10;;;;;;;25.82;20.25;;;;;;;11.20;34.99;101137.62;1678878;85;25636;-52
2023/04/03 10:33:08;;;;;;;4.45;2.25;;;;;;;10.73;35.69;101136.07;1755701;81;25394;-53
2023/04/03 10:35:40;;;;;;;3.70;1.45;;;;;;;10.44;36.16;101123.97;1698883;83;25896;-50
2023/04/03 10:38:30;;;;;;;1.85;1.20;;;;;;;10.32;36.03;101136.53;1699409;84;25785;-52
2023/04/03 10:41:22;;;;;;;3.95;1.50;;;;;;;10.08;35.69;101119.70;1700812;84;28005;-52
2023/04/03 10:44:38;;;;;;;2.15;1.40;;;;;;;9.63;35.66;101131.70;1701140;84;26083;-54
2023/04/03 10:47:19;;;;;;;1.67;1.10;;;;;;;9.26;36.57;101138.42;1701110;84;25586;-51
2023/04/03 10:49:50;;;;;;;1.42;1.00;;;;;;;9.41;37.39;101127.53;1699466;84;25620;-54
2023/04/03 10:52:31;;;;;;;2.62;1.25;;;;;;;9.31;37.12;101135.70;1701140;84;25509;-52
2023/04/03 10:55:12;;;;;;;1.95;1.20;;;;;;;9.03;36.65;101135.87;1700695;84;27502;-52
2023/04/03 10:57:40;;;;;;;3.35;1.57;;;;;;;8.85;36.57;101131.89;1661706;86;26958;-54
2023/04/03 11:00:39;;;;;;;3.47;1.60;;;;;;;8.57;36.95;101127.42;1662738;86;25469;-52
2023/04/03 11:03:24;;;;;;;2.10;1.22;;;;;;;8.77;37.59;101126.00;1662815;86;25631;-53
2023/04/03 11:05:53;;;;;;;1.98;1.15;;;;;;;9.40;37.38;101114.30;1662740;86;25495;-52
2023/04/03 11:08:30;;;;;;;;;;;;;;;9.46;36.99;101128.05;1665134;86;27498;-51
2023/04/03 11:11:01;;;;;;;2.52;1.32;;;;;;;9.27;36.76;101130.05;1662676;86;27304;-54
2023/04/03 11:13:48;;;;;;;3.30;1.40;;;;;;;9.13;36.68;101119.62;1683240;84;25507;-53
2023/04/03 11:16:27;;;;;;;3.30;1.20;;;;;;;8.83;36.49;101123.27;1693288;84;26149;-54
2023/04/03 11:19:23;;;;;;;3.25;1.12;;;;;;;8.53;36.71;101123.12;1694647;84;25435;-53
2023/04/03 11:22:28;;;;;;;2.75;1.00;;;;;;;8.45;36.92;101126.38;1682150;85;27533;-54
2023/04/03 11:25:12;;;;;;;3.80;1.17;;;;;;;8.82;37.75;101123.83;1694443;84;25763;-55
2023/04/03 11:27:56;;;;;;;1.92;1.20;;;;;;;9.71;38.64;101123.00;1694480;84;25578;-55
2023/04/03 11:30:34;;;;;;;2.15;1.10;;;;;;;10.22;37.83;101124.44;1682300;85;27597;-56
2023/04/03 11:33:18;;;;;;;2.70;1.27;;;;;;;10.57;36.20;101114.34;1694500;84;25626;-53
2023/04/03 11:35:48;;;;;;;3.45;1.35;;;;;;;10.81;36.47;101120.55;1745355;81;28353;-54
2023/04/03 11:38:30;;;;;;;3.20;1.57;;;;;;;11.48;36.25;101111.48;1755661;81;25478;-52
2023/04/03 11:40:58;;;;;;;2.30;1.17;;;;;;;11.92;35.21;101106.19;1755430;81;25416;-55
2023/04/03 11:43:31;;;;;;;4.30;1.20;;;;;;;12.15;35.05;101100.33;1756301;81;25385;-55
2023/04/03 11:46:04;;;;;;;5.90;1.70;;;;;;;11.70;34.07;101101.94;1756101;81;25634;-56
2023/04/03 11:48:39;;;;;;;2.65;1.30;;;;;;;11.10;34.61;101106.62;1677027;85;27480;-53
2023/04/03 11:51:32;;;;;;;2.10;1.42;;;;;;;10.62;35.14;101111.05;1751147;81;25551;-55
2023/04/03 11:54:35;;;;;;;3.45;1.15;;;;;;;10.13;35.10;101108.56;1751223;82;25536;-51
2023/04/03 11:57:22;;;;;;;2.72;1.17;;;;;;;10.30;36.64;101106.24;1700827;84;25694;-53
2023/04/03 11:59:49;;;;;;;3.60;1.25;;;;;;;10.30;35.70;101096.78;1700607;84;25534;-53
2023/04/03 12:02:37;;;;;;;6.47;1.87;;;;;;;9.99;35.66;101101.13;1701086;84;28058;-55
2023/04/03 12:05:29;;;;;;;2.35;1.30;;;;;;;9.67;35.34;101113.31;1700658;84;25512;-53
2023/04/03 12:08:42;;;;;;;3.05;1.40;;;;;;;9.82;35.82;101106.16;1701218;84;25594;-51
2023/04/03 12:11:16;;;;;;;1.37;1.10;;;;;;;10.58;36.75;101097.83;1701138;84;25683;-53
2023/04/03 12:14:00;;;;;;;3.08;1.47;;;;;;;11.16;35.72;101086.52;1700525;84;25465;-53